Meteo Giornale » Osservazioni meteo Svizzera » Locarno

ore: 11:50 - Osservazioni Meteo Locarno
Lat. 46° 10' N Lon. 8° 53' E Alt. 600 metri s.l.m.

poco_nuvoloso Europe/Zurich

27 °C

Poco Nuvoloso

Temp. 24 Ore

15 °C

27 °C

Nord

3.7 Km/h

Dew point 13 °C

Umidità 42 %

Visibilità  10 Km

Il sole sorge alle ore 05:48

Il sole tramonta alle ore 21:12

Data e Ora Cielo e Fenomeni T °C DP °C Um. % Pres. hPa Vis. km Vento km/h
Oggi h: 11:50 poco_nuvoloso Poco Nuvoloso 27 13 42 1012 10 N 3.7
Oggi h: 10:50 sereno Sereno 24 15 57 1013 10 N 3.7
Oggi h: 09:50 sereno Sereno 23 14 56 1013 10 N 0
Oggi h: 08:50 sereno Sereno 20 15 72 1013 10 N 3.7
Oggi h: 07:50 sereno Sereno 18 14 77 1013 10 N 5.5
Oggi h: 06:50 poco_nuvoloso Poco Nuvoloso 15 14 93 1013 10 N 0
Oggi h: 05:50 sereno Sereno 15 14 93 1012 10 N 0
Oggi h: 04:50 sereno Sereno 17 14 82 1012 10 N 3.7
Oggi h: 03:50 sereno Sereno 17 14 82 1012 10 N 1.8
Oggi h: 02:50 sereno Sereno 17 15 88 1012 10 E/NE 7.4
Oggi h: 01:50 sereno Sereno 17 15 88 1012 10 E/NE 11.1
Ieri h: 23:50 sereno Sereno 19 16 82 1012 10 E/NE 11.1
Ieri h: 22:50 poco_nuvoloso Poco Nuvoloso 19 17 88 1012 10 E/NE 9.3
Ieri h: 21:50 poco_nuvoloso Poco Nuvoloso 21 17 77 1012 10 E/SE 7.4
Ieri h: 20:50 nuvoloso Nuvoloso 22 17 73 1011 10 E/NE 9.3
Ieri h: 19:50 poco_nuvoloso Poco Nuvoloso 23 18 73 1011 10 NE 7.4
Ieri h: 18:50 coperto_pioggia Pioggia Debole 22 17 73 1011 10 E 24
Ieri h: 17:50 molto_nuvoloso Molto Nuvoloso 26 18 61 1010 10 O 14.8
Ieri h: 16:50 poco_nuvoloso Poco Nuvoloso 27 18 57 1009 10 O/NO 9.3
Ieri h: 15:50 poco_nuvoloso Poco Nuvoloso 26 18 61 1010 10 O/SO 14.8
Ieri h: 14:50 molto_nuvoloso Molto Nuvoloso 25 18 65 1011 10 N 5.5
Ieri h: 13:50 poco_nuvoloso Poco Nuvoloso 24 17 64 1011 10 O 9.3